Time;durP1;ratioP1;P1;durP2;ratioP2;P2;SDS_P1;SDS_P2;PMS_P1;PMS_P2;Temp;Humidity;BMP_temperature;BMP_pressure;BME280_temperature;BME280_humidity;BME280_pressure;Samples;Min_cycle;Max_cycle;Signal;HPM_P1;HPM_P2
2021/08/25 00:02:10;;;;;;;4.38;2.38;;;14.60;99.90;;;;;;5075098;28;20036;-87
2021/08/25 00:04:40;;;;;;;3.30;1.95;;;14.50;99.90;;;;;;5056923;28;20118;-87
2021/08/25 00:07:07;;;;;;;3.55;1.88;;;14.60;99.90;;;;;;5056900;28;20032;-88
2021/08/25 00:09:38;;;;;;;3.65;1.95;;;14.50;99.90;;;;;;5056771;28;20051;-88
2021/08/25 00:12:07;;;;;;;4.00;2.10;;;14.50;99.90;;;;;;5056797;28;20029;-87
2021/08/25 00:14:34;;;;;;;4.45;2.17;;;14.50;99.90;;;;;;5056567;28;20036;-87
2021/08/25 00:17:00;;;;;;;4.38;2.20;;;14.50;99.90;;;;;;5075165;28;20038;-87
2021/08/25 00:19:27;;;;;;;3.60;1.95;;;14.40;99.90;;;;;;5074264;28;20032;-88
2021/08/25 00:21:54;;;;;;;4.47;2.03;;;14.40;99.90;;;;;;5056580;28;20081;-87
2021/08/25 00:24:21;;;;;;;4.25;2.33;;;14.40;99.90;;;;;;5090175;28;20025;-87
2021/08/25 00:26:48;;;;;;;4.57;2.22;;;14.40;99.90;;;;;;5052547;28;20586;-87
2021/08/25 00:29:15;;;;;;;4.20;2.13;;;14.40;99.90;;;;;;5053375;28;20079;-88
2021/08/25 00:31:42;;;;;;;4.10;2.15;;;14.40;99.90;;;;;;5054098;28;20415;-87
2021/08/25 00:34:09;;;;;;;3.63;2.10;;;14.30;99.90;;;;;;5053909;28;20025;-87
2021/08/25 00:36:35;;;;;;;4.45;2.40;;;14.30;99.90;;;;;;5053786;28;20516;-87
2021/08/25 00:39:03;;;;;;;4.50;2.30;;;14.30;99.90;;;;;;5053852;28;20124;-87
2021/08/25 00:41:29;;;;;;;4.30;2.35;;;14.20;99.90;;;;;;5053909;28;20025;-87
2021/08/25 00:43:56;;;;;;;4.75;2.42;;;14.20;99.90;;;;;;5055345;28;20029;-87
2021/08/25 00:46:22;;;;;;;5.22;2.47;;;14.20;99.90;;;;;;5053698;28;20025;-87
2021/08/25 00:48:51;;;;;;;3.95;2.58;;;14.20;99.90;;;;;;5055092;28;20385;-86
2021/08/25 00:51:17;;;;;;;4.53;2.40;;;14.10;99.90;;;;;;5051386;28;20029;-86
2021/08/25 00:53:44;;;;;;;4.35;2.50;;;14.10;99.90;;;;;;5053500;28;20017;-86
2021/08/25 00:56:11;;;;;;;4.82;2.38;;;14.10;99.90;;;;;;5053487;28;20110;-87
2021/08/25 00:58:42;;;;;;;5.20;2.70;;;14.00;99.90;;;;;;5053200;28;20021;-86
2021/08/25 01:01:31;;;;;;;6.15;3.20;;;14.00;99.90;;;;;;5053614;28;20057;-86
2021/08/25 01:04:01;;;;;;;4.65;2.70;;;13.90;99.90;;;;;;5054336;28;20032;-86
2021/08/25 01:06:29;;;;;;;6.03;2.38;;;13.80;99.90;;;;;;5054235;28;20035;-86
2021/08/25 01:09:01;;;;;;;5.10;2.78;;;13.80;99.90;;;;;;5054224;28;20029;-87
2021/08/25 01:11:27;;;;;;;4.95;2.70;;;13.80;99.90;;;;;;5053209;28;20021;-87
2021/08/25 01:13:53;;;;;;;5.75;2.75;;;13.80;99.90;;;;;;5054353;28;20096;-87
2021/08/25 01:16:19;;;;;;;4.25;2.75;;;13.80;99.90;;;;;;5053121;28;20028;-87
2021/08/25 01:18:46;;;;;;;5.22;2.80;;;13.80;99.90;;;;;;5053519;28;20481;-89
2021/08/25 01:21:12;;;;;;;5.20;2.60;;;13.80;99.90;;;;;;5053525;28;20484;-86
2021/08/25 01:23:43;;;;;;;4.65;2.38;;;13.80;99.90;;;;;;5052710;28;20028;-87
2021/08/25 01:26:11;;;;;;;4.85;2.78;;;13.80;99.90;;;;;;5052966;28;20021;-86
2021/08/25 01:28:45;;;;;;;5.47;2.75;;;13.80;99.90;;;;;;5055553;28;20097;-87
2021/08/25 01:31:12;;;;;;;4.00;2.35;;;13.80;99.90;;;;;;5086844;28;20024;-86
2021/08/25 01:33:38;;;;;;;4.32;2.40;;;13.80;99.90;;;;;;5056040;28;20012;-87
2021/08/25 01:36:04;;;;;;;4.88;2.78;;;13.80;99.90;;;;;;5073582;28;20029;-87
2021/08/25 01:38:49;;;;;;;4.70;2.80;;;13.80;99.90;;;;;;5073224;28;20020;-87
2021/08/25 01:41:17;;;;;;;5.10;2.92;;;13.80;99.90;;;;;;5087111;28;20035;-87
2021/08/25 01:43:43;;;;;;;5.05;2.50;;;13.80;99.90;;;;;;5056023;28;20035;-87
2021/08/25 01:46:16;;;;;;;5.57;2.90;;;13.80;99.90;;;;;;5089292;28;20380;-88
2021/08/25 01:48:42;;;;;;;4.43;2.58;;;13.70;99.90;;;;;;5054060;28;20029;-87
2021/08/25 01:51:08;;;;;;;4.65;2.63;;;13.70;99.90;;;;;;5089056;28;20085;-87
2021/08/25 01:53:34;;;;;;;4.97;2.45;;;13.70;99.90;;;;;;5089181;28;20029;-87
2021/08/25 01:56:00;;;;;;;5.13;2.63;;;13.70;99.90;;;;;;5088060;28;20465;-87
2021/08/25 01:58:26;;;;;;;4.38;2.58;;;13.60;99.90;;;;;;5088806;28;20068;-86
2021/08/25 02:00:52;;;;;;;6.40;2.95;;;13.60;99.90;;;;;;5073443;28;20028;-87
2021/08/25 02:03:18;;;;;;;5.47;2.50;;;13.60;99.90;;;;;;5089348;28;20597;-88
2021/08/25 02:05:44;;;;;;;6.30;3.20;;;13.60;99.90;;;;;;5089367;28;20118;-87
2021/08/25 02:08:11;;;;;;;5.10;3.08;;;13.50;99.90;;;;;;5073376;28;20028;-88
2021/08/25 02:10:38;;;;;;;5.00;2.60;;;13.50;99.90;;;;;;5089265;28;20435;-87
2021/08/25 02:13:04;;;;;;;4.50;2.80;;;13.50;99.90;;;;;;5089259;28;20024;-87
2021/08/25 02:15:30;;;;;;;4.80;2.92;;;13.50;99.90;;;;;;5089256;28;20037;-88
2021/08/25 02:17:56;;;;;;;4.70;2.85;;;13.50;99.90;;;;;;5073367;28;20037;-88
2021/08/25 02:20:22;;;;;;;6.55;2.83;;;13.50;99.90;;;;;;5089087;28;20032;-87
2021/08/25 02:22:48;;;;;;;5.10;2.90;;;13.40;99.90;;;;;;5089115;28;20344;-87
2021/08/25 02:25:13;;;;;;;3.95;2.70;;;13.40;99.90;;;;;;5055521;28;20017;-87
2021/08/25 02:27:40;;;;;;;5.03;2.78;;;13.40;99.90;;;;;;5088601;28;20059;-87
2021/08/25 02:30:06;;;;;;;4.60;2.45;;;13.40;99.90;;;;;;5055835;28;20028;-87
2021/08/25 02:32:32;;;;;;;4.47;2.53;;;13.40;99.90;;;;;;5055497;28;20431;-87
2021/08/25 02:34:58;;;;;;;4.38;2.50;;;13.40;99.90;;;;;;5055561;28;20021;-88
2021/08/25 02:37:24;;;;;;;4.22;2.60;;;13.40;99.90;;;;;;5055635;28;20036;-88
2021/08/25 02:39:50;;;;;;;6.53;3.13;;;13.40;99.90;;;;;;5073738;28;20028;-88
2021/08/25 02:42:16;;;;;;;4.28;2.40;;;13.40;99.90;;;;;;5073175;28;20365;-88
2021/08/25 02:44:42;;;;;;;5.03;2.60;;;13.40;99.90;;;;;;5088848;28;20432;-88
2021/08/25 02:47:08;;;;;;;4.55;2.47;;;13.40;99.90;;;;;;5088942;28;20032;-88
2021/08/25 02:49:34;;;;;;;4.38;2.45;;;13.40;99.90;;;;;;5054889;28;20055;-88
2021/08/25 02:52:00;;;;;;;3.65;2.25;;;13.40;99.90;;;;;;5073055;28;20029;-88
2021/08/25 02:54:26;;;;;;;5.28;2.55;;;13.40;99.90;;;;;;5089012;28;20380;-88
2021/08/25 02:56:52;;;;;;;5.72;2.60;;;13.40;99.90;;;;;;5088945;28;20028;-87
2021/08/25 02:59:19;;;;;;;6.13;2.83;;;13.30;99.90;;;;;;5088767;28;20021;-88
2021/08/25 03:01:44;;;;;;;5.15;2.33;;;13.30;99.90;;;;;;5072935;28;20016;-88
2021/08/25 03:04:10;;;;;;;5.32;2.80;;;13.30;99.90;;;;;;5088718;28;20035;-88
2021/08/25 03:06:36;;;;;;;5.40;2.45;;;13.30;99.90;;;;;;5072803;28;20035;-88
2021/08/25 03:09:02;;;;;;;4.38;2.72;;;13.20;99.90;;;;;;5088851;28;20518;-88
2021/08/25 03:11:28;;;;;;;6.10;2.80;;;13.20;99.90;;;;;;5088816;28;20021;-88
2021/08/25 03:13:54;;;;;;;4.88;2.50;;;13.20;99.90;;;;;;5074548;28;20496;-88
2021/08/25 03:16:20;;;;;;;4.15;2.42;;;13.20;99.90;;;;;;5058888;28;20451;-87
2021/08/25 03:18:46;;;;;;;5.38;2.95;;;13.20;99.90;;;;;;5076491;28;20028;-88
2021/08/25 03:21:12;;;;;;;6.32;2.55;;;13.20;99.90;;;;;;5077047;28;20479;-88
2021/08/25 03:23:39;;;;;;;3.63;1.90;;;13.20;99.90;;;;;;5092426;28;20020;-88
2021/08/25 03:26:05;;;;;;;5.57;2.42;;;13.20;99.90;;;;;;5058543;28;20029;-88
2021/08/25 03:28:31;;;;;;;5.10;2.97;;;13.10;99.90;;;;;;5068730;28;20136;-88
2021/08/25 03:30:57;;;;;;;7.18;3.03;;;13.10;99.90;;;;;;5068749;28;20471;-88
2021/08/25 03:33:24;;;;;;;7.85;3.25;;;13.10;99.90;;;;;;5036769;28;20100;-88
2021/08/25 03:35:50;;;;;;;6.28;3.15;;;13.00;99.90;;;;;;5068797;28;20113;-89
2021/08/25 03:38:17;;;;;;;5.63;3.10;;;13.00;99.90;;;;;;5035306;28;20488;-88
2021/08/25 03:40:43;;;;;;;4.93;2.85;;;13.00;99.90;;;;;;5068739;28;20014;-88
2021/08/25 03:43:09;;;;;;;5.35;3.00;;;12.90;99.90;;;;;;5036327;28;20069;-88
2021/08/25 03:45:35;;;;;;;5.85;2.83;;;13.00;99.90;;;;;;5035159;28;20079;-88
2021/08/25 03:48:01;;;;;;;4.45;2.58;;;12.90;99.90;;;;;;5035002;28;20489;-88
2021/08/25 03:50:27;;;;;;;4.93;2.95;;;12.80;99.90;;;;;;5035190;28;20048;-88
2021/08/25 03:52:52;;;;;;;4.40;2.30;;;12.90;99.90;;;;;;5068673;28;20414;-88
2021/08/25 03:55:19;;;;;;;4.72;2.35;;;12.90;99.90;;;;;;5035006;28;20017;-89
2021/08/25 03:57:45;;;;;;;5.32;2.95;;;12.80;99.90;;;;;;5068315;28;20527;-89
2021/08/25 04:00:11;;;;;;;4.18;2.53;;;12.80;99.90;;;;;;5034909;28;20024;-89
2021/08/25 04:02:37;;;;;;;4.82;2.67;;;12.70;99.90;;;;;;5035583;28;20025;-88
2021/08/25 04:05:03;;;;;;;4.95;2.25;;;12.70;99.90;;;;;;5035266;28;20119;-86
2021/08/25 04:07:29;;;;;;;4.45;2.65;;;12.70;99.90;;;;;;5067236;28;20063;-89
2021/08/25 04:09:55;;;;;;;4.60;2.72;;;12.60;99.90;;;;;;5033826;28;20477;-89
2021/08/25 04:12:21;;;;;;;4.72;2.50;;;12.70;99.90;;;;;;5034028;28;20021;-87
2021/08/25 04:14:47;;;;;;;5.32;2.97;;;12.60;99.90;;;;;;5034066;28;20025;-88
2021/08/25 04:17:13;;;;;;;5.82;2.92;;;12.60;99.90;;;;;;5067061;28;20021;-87
2021/08/25 04:19:39;;;;;;;5.25;2.70;;;12.60;99.90;;;;;;5033813;28;20080;-87
2021/08/25 04:22:05;;;;;;;4.57;2.40;;;12.50;99.90;;;;;;5035288;28;20037;-87
2021/08/25 04:24:32;;;;;;;4.60;2.60;;;12.50;99.90;;;;;;5067187;28;20527;-87
2021/08/25 04:26:57;;;;;;;5.03;2.95;;;12.50;99.90;;;;;;5049088;28;20052;-85
2021/08/25 04:29:23;;;;;;;4.40;2.80;;;12.50;99.90;;;;;;5074653;28;20017;-87
2021/08/25 04:31:49;;;;;;;5.72;2.97;;;12.40;99.90;;;;;;5090574;28;20024;-87
2021/08/25 04:34:15;;;;;;;4.97;2.60;;;12.40;99.90;;;;;;5090423;28;20028;-87
2021/08/25 04:36:42;;;;;;;5.20;2.95;;;12.50;99.90;;;;;;5057404;28;20025;-87
2021/08/25 04:39:07;;;;;;;4.60;2.55;;;12.40;99.90;;;;;;5055821;28;20140;-89
2021/08/25 04:41:33;;;;;;;6.18;3.08;;;12.40;99.90;;;;;;5088719;28;20040;-89
2021/08/25 04:43:59;;;;;;;5.57;3.17;;;12.40;99.90;;;;;;5072364;28;20020;-88
2021/08/25 04:46:25;;;;;;;6.05;3.08;;;12.40;99.90;;;;;;5087774;28;20025;-88
2021/08/25 04:48:51;;;;;;;4.35;2.55;;;12.40;99.90;;;;;;5087308;28;20663;-88
2021/08/25 04:51:17;;;;;;;4.38;2.80;;;12.40;99.90;;;;;;5054360;28;20036;-87
2021/08/25 04:53:43;;;;;;;4.97;2.70;;;12.40;99.90;;;;;;5087994;28;20032;-87
2021/08/25 04:56:09;;;;;;;4.47;2.40;;;12.40;99.90;;;;;;5087503;28;20016;-87
2021/08/25 04:58:35;;;;;;;4.95;3.00;;;12.40;99.90;;;;;;5087934;28;20028;-87
2021/08/25 05:01:04;;;;;;;5.18;2.70;;;12.40;99.90;;;;;;5087744;28;20372;-88
2021/08/25 05:03:31;;;;;;;4.47;2.53;;;12.40;99.90;;;;;;5053969;28;20381;-87
2021/08/25 05:05:59;;;;;;;4.65;2.80;;;12.40;99.90;;;;;;5054226;28;20021;-89
2021/08/25 05:08:28;;;;;;;5.57;2.42;;;12.40;99.90;;;;;;5053662;28;20468;-88
2021/08/25 05:10:54;;;;;;;4.97;2.70;;;12.40;99.90;;;;;;5088309;28;20059;-87
2021/08/25 05:13:20;;;;;;;4.85;2.58;;;12.40;99.90;;;;;;5054899;28;20101;-87
2021/08/25 05:15:47;;;;;;;4.07;2.30;;;12.40;99.90;;;;;;5054693;28;20021;-88
2021/08/25 05:18:16;;;;;;;5.57;2.85;;;12.50;99.90;;;;;;5072384;28;20036;-88
2021/08/25 05:20:42;;;;;;;4.22;2.50;;;12.50;99.90;;;;;;5087499;28;20028;-87
2021/08/25 05:23:11;;;;;;;3.63;2.30;;;12.60;99.90;;;;;;5088172;28;20074;-88
2021/08/25 05:25:37;;;;;;;5.10;2.70;;;12.50;99.90;;;;;;5055959;28;20056;-88
2021/08/25 05:28:03;;;;;;;4.65;2.60;;;12.60;99.90;;;;;;5074025;28;20060;-88
2021/08/25 05:30:30;;;;;;;3.53;2.35;;;12.60;99.90;;;;;;5056289;28;20113;-88
2021/08/25 05:32:55;;;;;;;4.20;2.58;;;12.70;99.90;;;;;;5056306;28;20020;-87
2021/08/25 05:35:23;;;;;;;4.93;2.67;;;12.70;99.90;;;;;;5089868;28;20032;-88
2021/08/25 05:37:50;;;;;;;5.38;2.60;;;12.70;99.90;;;;;;5056038;28;20035;-88
2021/08/25 05:40:20;;;;;;;5.63;2.42;;;12.70;99.90;;;;;;5073965;28;20048;-89
2021/08/25 05:42:46;;;;;;;4.63;2.60;;;12.80;99.90;;;;;;5056279;28;20119;-89
2021/08/25 05:45:13;;;;;;;4.65;2.60;;;12.80;99.90;;;;;;5056183;28;20486;-87
2021/08/25 05:47:39;;;;;;;4.80;2.42;;;12.90;99.90;;;;;;5055861;28;20028;-87
2021/08/25 05:50:07;;;;;;;4.20;2.72;;;13.00;99.90;;;;;;5055608;28;20029;-88
2021/08/25 05:52:35;;;;;;;4.97;3.25;;;13.00;99.90;;;;;;5073747;28;20404;-88
2021/08/25 05:55:05;;;;;;;4.55;2.55;;;13.00;99.90;;;;;;5073541;28;20029;-88
2021/08/25 05:57:31;;;;;;;5.38;2.97;;;13.10;99.90;;;;;;5056043;28;20028;-88
2021/08/25 05:59:57;;;;;;;3.70;2.42;;;13.20;99.90;;;;;;5055950;28;20027;-88
2021/08/25 06:02:23;;;;;;;4.75;2.80;;;13.20;99.90;;;;;;5055982;28;20116;-88
2021/08/25 06:04:49;;;;;;;4.88;2.80;;;13.30;99.90;;;;;;5089547;28;20024;-88
2021/08/25 06:07:15;;;;;;;3.83;2.30;;;13.30;99.90;;;;;;5073458;28;20025;-88
2021/08/25 06:09:41;;;;;;;4.93;2.72;;;13.40;99.90;;;;;;5089567;28;20538;-88
2021/08/25 06:12:07;;;;;;;4.05;2.90;;;13.40;99.90;;;;;;5089382;28;20105;-88
2021/08/25 06:14:33;;;;;;;6.00;3.03;;;13.50;99.90;;;;;;5089320;28;20092;-88
2021/08/25 06:16:59;;;;;;;4.63;2.83;;;13.50;99.90;;;;;;5089226;28;20027;-87
2021/08/25 06:19:28;;;;;;;4.90;2.90;;;13.60;99.90;;;;;;5055955;28;20024;-88
2021/08/25 06:22:00;;;;;;;5.28;2.97;;;13.60;99.90;;;;;;5089261;28;20119;-89
2021/08/25 06:24:27;;;;;;;6.30;2.85;;;13.70;99.90;;;;;;5055709;28;20024;-87
2021/08/25 06:26:57;;;;;;;4.60;2.78;;;13.80;99.90;;;;;;5051689;28;20053;-88
2021/08/25 06:29:23;;;;;;;5.25;2.95;;;13.80;99.90;;;;;;5053818;28;20048;-88
2021/08/25 06:31:49;;;;;;;4.32;2.70;;;13.90;99.90;;;;;;5052197;28;20074;-88
2021/08/25 06:34:15;;;;;;;5.10;3.20;;;14.00;99.90;;;;;;5052297;28;20079;-88
2021/08/25 06:36:42;;;;;;;5.70;3.13;;;14.00;99.90;;;;;;5052385;28;20025;-88
2021/08/25 06:39:08;;;;;;;4.57;2.80;;;14.10;99.90;;;;;;5052287;28;20044;-88
2021/08/25 06:41:35;;;;;;;4.80;2.88;;;14.20;99.90;;;;;;5052999;28;20061;-88
2021/08/25 06:44:01;;;;;;;5.97;3.53;;;14.20;99.90;;;;;;5052206;28;20028;-88
2021/08/25 06:46:26;;;;;;;5.03;3.03;;;14.40;99.90;;;;;;5051802;28;20420;-88
2021/08/25 06:48:52;;;;;;;5.90;2.92;;;14.40;99.90;;;;;;5052158;28;20028;-87
2021/08/25 06:51:19;;;;;;;5.07;2.85;;;14.50;99.90;;;;;;5055678;28;20430;-89
2021/08/25 06:53:45;;;;;;;5.68;2.90;;;14.60;99.90;;;;;;5056145;28;20119;-88
2021/08/25 06:56:14;;;;;;;6.57;3.20;;;14.70;99.90;;;;;;5055962;28;20021;-87
2021/08/25 06:58:44;;;;;;;5.25;3.10;;;14.70;99.90;;;;;;5056053;28;20033;-88
2021/08/25 07:01:10;;;;;;;6.55;3.35;;;14.80;99.90;;;;;;5055983;28;20025;-88
2021/08/25 07:03:42;;;;;;;5.45;2.88;;;14.90;99.90;;;;;;5055754;28;20029;-88
2021/08/25 07:06:12;;;;;;;4.68;2.80;;;15.00;99.90;;;;;;5055967;28;20032;-88
2021/08/25 07:08:43;;;;;;;5.40;3.17;;;15.10;99.90;;;;;;5055769;28;20035;-88
2021/08/25 07:11:10;;;;;;;5.63;3.03;;;15.20;99.90;;;;;;5056674;28;20025;-88
2021/08/25 07:13:39;;;;;;;5.47;3.10;;;15.30;99.90;;;;;;5055739;28;20025;-88
2021/08/25 07:16:14;;;;;;;5.28;3.38;;;15.40;99.90;;;;;;5055739;28;20078;-89
2021/08/25 07:18:43;;;;;;;4.70;2.90;;;15.40;99.90;;;;;;5055677;28;20032;-88
2021/08/25 07:21:16;;;;;;;4.68;2.90;;;15.60;99.90;;;;;;5056881;28;20018;-89
2021/08/25 07:23:50;;;;;;;6.00;3.03;;;15.70;99.90;;;;;;5056563;28;20380;-88
2021/08/25 07:26:19;;;;;;;5.32;2.20;;;15.80;99.90;;;;;;5056407;28;20048;-88
2021/08/25 07:28:48;;;;;;;4.85;2.58;;;15.90;99.90;;;;;;5059636;28;20033;-89
2021/08/25 07:31:15;;;;;;;4.75;2.60;;;15.90;99.90;;;;;;5058762;28;20028;-89
2021/08/25 07:33:49;;;;;;;4.80;2.97;;;16.00;99.90;;;;;;5058609;28;20024;-89
2021/08/25 07:36:16;;;;;;;4.75;3.05;;;16.10;99.90;;;;;;5076428;28;20021;-90
2021/08/25 07:38:42;;;;;;;5.50;2.58;;;16.10;99.90;;;;;;5058853;28;20025;-89
2021/08/25 07:41:08;;;;;;;6.00;2.80;;;16.20;99.90;;;;;;5058756;28;20067;-89
2021/08/25 07:43:38;;;;;;;4.57;2.50;;;16.30;99.90;;;;;;5076223;28;20357;-89
2021/08/25 07:46:05;;;;;;;5.32;3.00;;;16.40;99.90;;;;;;5075937;28;20111;-88
2021/08/25 07:48:33;;;;;;;4.43;2.67;;;16.50;99.90;;;;;;5076062;28;20028;-89
2021/08/25 07:51:08;;;;;;;5.53;2.90;;;16.60;99.90;;;;;;5058259;28;20024;-89
2021/08/25 07:53:37;;;;;;;6.00;3.08;;;16.70;99.90;;;;;;5058498;28;20025;-88
2021/08/25 07:56:06;;;;;;;5.35;3.08;;;16.70;99.90;;;;;;5058132;28;20032;-89
2021/08/25 07:58:32;;;;;;;4.80;2.85;;;16.80;99.90;;;;;;5075799;28;20088;-89
2021/08/25 08:01:02;;;;;;;5.60;2.83;;;16.80;99.90;;;;;;5057429;28;20028;-89
2021/08/25 08:03:31;;;;;;;4.40;2.58;;;16.90;99.90;;;;;;5057777;28;20029;-89
2021/08/25 08:05:58;;;;;;;5.63;2.90;;;17.00;99.90;;;;;;5058068;28;20031;-89
2021/08/25 08:08:27;;;;;;;5.07;2.60;;;17.10;99.90;;;;;;5075840;28;20161;-89
2021/08/25 08:10:57;;;;;;;4.25;2.38;;;17.20;99.90;;;;;;5058005;28;20024;-89
2021/08/25 08:13:29;;;;;;;6.60;3.13;;;17.30;99.90;;;;;;5075897;28;20517;-89
2021/08/25 08:15:58;;;;;;;5.43;3.33;;;17.40;99.90;;;;;;5057865;28;20089;-88
2021/08/25 08:18:32;;;;;;;5.55;3.03;;;17.40;99.90;;;;;;5057701;28;20025;-89
2021/08/25 08:21:03;;;;;;;4.88;2.85;;;17.50;99.90;;;;;;5057666;28;20036;-89
2021/08/25 08:23:33;;;;;;;5.40;2.50;;;17.50;99.90;;;;;;5057865;28;20028;-88
2021/08/25 08:26:08;;;;;;;3.67;2.22;;;17.60;99.90;;;;;;5057753;28;20020;-89
2021/08/25 08:28:36;;;;;;;4.28;2.20;;;17.70;99.90;;;;;;5057683;28;20541;-89
2021/08/25 08:31:06;;;;;;;4.38;2.22;;;17.70;99.90;;;;;;5057564;28;20024;-89
2021/08/25 08:33:33;;;;;;;4.70;2.22;;;17.70;99.90;;;;;;5074150;28;20031;-88
2021/08/25 08:35:59;;;;;;;3.90;2.40;;;17.80;99.90;;;;;;5057315;28;20029;-88
2021/08/25 08:38:28;;;;;;;5.38;2.60;;;17.90;99.90;;;;;;5057400;28;20048;-88
2021/08/25 08:40:58;;;;;;;4.60;2.55;;;17.90;99.90;;;;;;5074952;28;20095;-89
2021/08/25 08:43:24;;;;;;;4.25;2.35;;;17.90;99.90;;;;;;5057458;28;20024;-88
2021/08/25 08:46:03;;;;;;;3.65;2.17;;;18.00;99.90;;;;;;5057254;28;20020;-88
2021/08/25 08:48:31;;;;;;;4.20;2.45;;;18.10;99.90;;;;;;5057239;28;20029;-89
2021/08/25 08:51:04;;;;;;;5.18;2.60;;;18.20;99.90;;;;;;5056978;28;20035;-88
2021/08/25 08:53:31;;;;;;;;;;;18.30;99.90;;;;;;5057529;28;20039;-89
2021/08/25 08:56:00;;;;;;;4.47;2.10;;;18.40;99.90;;;;;;5057184;28;19908;-87
2021/08/25 08:58:28;;;;;;;4.15;2.13;;;18.60;99.90;;;;;;5056994;28;20032;-88
2021/08/25 09:00:54;;;;;;;4.70;2.10;;;18.70;99.90;;;;;;5057248;28;20032;-89
2021/08/25 09:03:26;;;;;;;4.22;1.80;;;18.80;99.90;;;;;;5056561;28;20377;-88
2021/08/25 09:06:03;;;;;;;4.15;2.00;;;18.90;99.90;;;;;;5038795;28;20553;-88
2021/08/25 09:08:31;;;;;;;4.75;2.10;;;18.90;99.90;;;;;;5055427;28;20033;-88
2021/08/25 09:11:07;;;;;;;4.15;2.00;;;19.00;99.90;;;;;;5055170;28;20016;-88
2021/08/25 09:13:34;;;;;;;4.10;2.25;;;19.00;99.90;;;;;;5053066;28;20097;-88
2021/08/25 09:16:06;;;;;;;4.88;2.10;;;19.10;99.90;;;;;;5054835;28;20017;-90
2021/08/25 09:18:41;;;;;;;5.30;2.65;;;19.20;99.90;;;;;;5072824;28;20454;-90
2021/08/25 09:21:07;;;;;;;3.60;2.25;;;19.30;99.90;;;;;;5052373;28;20032;-88
2021/08/25 09:23:33;;;;;;;3.70;1.55;;;19.30;99.90;;;;;;5086844;28;20028;-90
2021/08/25 09:26:17;;;;;;;4.25;2.28;;;19.40;99.90;;;;;;5038885;28;20056;-89
2021/08/25 09:28:43;;;;;;;3.33;1.75;;;19.50;99.90;;;;;;5073036;28;20150;-89
2021/08/25 09:31:14;;;;;;;3.60;1.75;;;19.60;99.90;;;;;;5089828;28;20044;-88
2021/08/25 09:33:45;;;;;;;3.30;1.83;;;19.60;99.90;;;;;;5054546;28;20033;-89
2021/08/25 09:36:19;;;;;;;4.50;2.00;;;19.70;99.90;;;;;;5053377;28;20477;-90
2021/08/25 09:38:58;;;;;;;3.72;2.13;;;19.80;99.90;;;;;;5055233;28;20081;-89
2021/08/25 09:41:28;;;;;;;4.13;2.10;;;20.10;99.90;;;;;;5086489;28;20457;-89
2021/08/25 09:44:12;;;;;;;3.47;2.05;;;21.20;99.90;;;;;;5054853;28;20024;-89
2021/08/25 09:46:49;;;;;;;4.13;2.20;;;22.80;99.90;;;;;;5058236;28;20024;-89
2021/08/25 09:49:16;;;;;;;3.80;2.00;;;24.50;99.90;;;;;;5073388;28;20473;-90
2021/08/25 09:51:47;;;;;;;3.80;2.30;;;25.50;99.90;;;;;;5072365;28;20066;-90
2021/08/25 09:54:16;;;;;;;3.63;2.35;;;26.40;99.90;;;;;;5038719;28;20040;-89
2021/08/25 09:56:45;;;;;;;4.38;2.10;;;26.90;97.90;;;;;;5072352;28;20523;-89
2021/08/25 09:59:18;;;;;;;3.78;2.20;;;27.30;97.30;;;;;;5071999;28;20032;-89
2021/08/25 10:01:45;;;;;;;;;;;27.90;95.70;;;;;;5054255;28;20027;-90
2021/08/25 10:04:16;;;;;;;3.83;2.00;;;28.20;95.60;;;;;;5071939;28;19989;-90
2021/08/25 10:06:49;;;;;;;4.00;2.17;;;28.80;94.70;;;;;;5054983;28;20124;-90
2021/08/25 10:09:15;;;;;;;3.85;2.40;;;29.10;93.00;;;;;;5054791;28;20020;-90
2021/08/25 10:11:45;;;;;;;4.18;2.28;;;29.30;91.60;;;;;;5072593;28;20032;-90
2021/08/25 10:14:16;;;;;;;4.43;2.30;;;29.50;90.00;;;;;;5055366;28;20024;-88
2021/08/25 10:16:44;;;;;;;3.92;2.08;;;29.80;89.30;;;;;;5054915;28;20507;-90
2021/08/25 10:19:29;;;;;;;3.80;2.10;;;30.10;87.90;;;;;;5073535;28;20031;-91
2021/08/25 10:22:00;;;;;;;3.42;2.10;;;30.50;85.60;;;;;;5055243;28;20036;-88
2021/08/25 10:24:26;;;;;;;3.50;2.03;;;30.70;83.60;;;;;;5055113;28;20052;-88
2021/08/25 10:26:59;;;;;;;3.67;2.17;;;30.90;81.20;;;;;;5052080;28;20198;-88
2021/08/25 10:29:29;;;;;;;3.22;2.00;;;31.00;79.50;;;;;;5052216;28;20029;-91
2021/08/25 10:32:01;;;;;;;4.43;2.50;;;31.00;78.60;;;;;;5053411;28;20017;-88
2021/08/25 10:34:37;;;;;;;3.38;2.13;;;31.20;76.90;;;;;;5051215;28;20032;-88
2021/08/25 10:37:20;;;;;;;3.25;1.85;;;31.40;77.00;;;;;;5049727;28;20039;-88
2021/08/25 10:39:56;;;;;;;4.10;2.45;;;31.80;74.40;;;;;;5056609;28;20048;-87
2021/08/25 10:42:52;;;;;;;3.85;2.30;;;31.70;71.40;;;;;;5052184;28;20025;-89
2021/08/25 10:45:39;;;;;;;5.35;2.60;;;31.60;71.60;;;;;;5053506;28;20024;-90
2021/08/25 10:48:09;;;;;;;4.90;2.50;;;31.60;71.60;;;;;;5041685;28;20427;-90
2021/08/25 10:50:53;;;;;;;3.92;2.20;;;31.80;70.90;;;;;;5051984;28;20120;-90
2021/08/25 10:53:28;;;;;;;3.65;2.22;;;31.90;69.30;;;;;;5052196;28;20025;-90
2021/08/25 10:56:11;;;;;;;4.43;2.53;;;32.10;68.60;;;;;;5051548;28;20026;-89
2021/08/25 10:58:42;;;;;;;5.35;2.60;;;32.30;65.80;;;;;;5051524;28;20094;-90
2021/08/25 11:01:28;;;;;;;3.70;2.13;;;32.00;68.60;;;;;;5053236;28;20032;-89
2021/08/25 11:03:55;;;;;;;3.35;2.20;;;32.40;68.40;;;;;;5051971;28;20025;-89
2021/08/25 11:06:39;;;;;;;4.47;2.38;;;32.60;67.60;;;;;;5048550;28;20017;-89
2021/08/25 11:09:20;;;;;;;3.40;2.40;;;33.00;65.70;;;;;;5048219;28;20021;-89
2021/08/25 11:12:11;;;;;;;3.97;2.25;;;33.00;65.80;;;;;;5049974;28;20025;-90
2021/08/25 11:14:51;;;;;;;5.22;3.13;;;33.00;68.00;;;;;;5044920;28;20480;-89
2021/08/25 11:17:19;;;;;;;5.72;2.78;;;32.80;67.40;;;;;;5048143;28;20102;-90
2021/08/25 11:19:48;;;;;;;4.85;2.70;;;32.70;67.20;;;;;;5047791;28;20028;-89
2021/08/25 11:22:26;;;;;;;4.45;2.75;;;33.00;66.80;;;;;;5049184;28;20021;-88
2021/08/25 11:25:05;;;;;;;4.45;2.70;;;33.30;65.30;;;;;;5049032;28;20127;-90
2021/08/25 11:27:41;;;;;;;4.07;2.40;;;33.50;65.10;;;;;;5073495;28;20041;-89
2021/08/25 11:30:20;;;;;;;4.28;3.03;;;32.60;64.40;;;;;;5045060;28;20076;-90
2021/08/25 11:33:08;;;;;;;5.30;2.88;;;31.10;66.10;;;;;;5010785;28;20025;-88
2021/08/25 11:35:44;;;;;;;4.63;3.10;;;29.90;68.70;;;;;;5032619;28;20021;-89
2021/08/25 11:38:20;;;;;;;6.30;3.25;;;30.30;68.90;;;;;;5034498;28;20045;-89
2021/08/25 11:40:50;;;;;;;4.90;2.88;;;30.70;67.80;;;;;;5034333;28;20060;-90
2021/08/25 11:43:24;;;;;;;4.97;2.80;;;30.70;67.70;;;;;;5033842;28;20376;-90
2021/08/25 11:45:56;;;;;;;3.97;2.53;;;30.60;67.00;;;;;;5031355;28;20025;-90
2021/08/25 11:48:31;;;;;;;4.40;2.70;;;30.60;67.10;;;;;;5034148;28;20065;-88
2021/08/25 11:51:00;;;;;;;6.38;2.80;;;31.00;66.70;;;;;;5048860;28;20272;-89
2021/08/25 11:53:32;;;;;;;5.70;2.78;;;31.60;66.80;;;;;;5032835;28;20029;-89
2021/08/25 11:55:59;;;;;;;3.42;2.67;;;31.80;65.60;;;;;;5019391;28;20037;-88
2021/08/25 11:58:42;;;;;;;5.13;2.47;;;31.10;66.00;;;;;;5016673;28;20084;-89
2021/08/25 12:01:23;;;;;;;4.80;3.10;;;30.60;66.70;;;;;;5020073;28;20041;-89
2021/08/25 12:03:49;;;;;;;3.72;2.35;;;30.70;66.10;;;;;;5034208;28;20129;-90
2021/08/25 12:06:36;;;;;;;3.90;2.55;;;31.10;66.00;;;;;;5034485;28;20026;-89
2021/08/25 12:09:02;;;;;;;4.45;2.78;;;31.70;65.00;;;;;;5023151;28;20109;-89
2021/08/25 12:11:29;;;;;;;4.30;2.80;;;31.90;64.90;;;;;;5033025;28;20477;-90
2021/08/25 12:14:04;;;;;;;9.45;3.33;;;32.00;64.40;;;;;;5034689;28;20029;-90
2021/08/25 12:16:32;;;;;;;9.32;2.85;;;32.20;64.30;;;;;;5034233;28;20029;-90
2021/08/25 12:19:03;;;;;;;4.65;2.67;;;32.40;64.40;;;;;;5033680;28;20120;-89
2021/08/25 12:21:36;;;;;;;6.18;3.10;;;32.40;62.60;;;;;;5034203;28;20025;-90
2021/08/25 12:24:12;;;;;;;3.95;2.80;;;32.30;62.10;;;;;;5033535;28;20024;-91
2021/08/25 12:26:56;;;;;;;5.10;2.63;;;32.40;64.10;;;;;;5037557;28;20445;-90
2021/08/25 12:29:32;;;;;;;3.92;2.40;;;32.60;63.50;;;;;;5056501;28;20040;-89
2021/08/25 12:31:59;;;;;;;3.60;2.42;;;32.70;64.50;;;;;;5057501;28;20111;-90
2021/08/25 12:34:26;;;;;;;5.22;2.20;;;32.90;65.20;;;;;;5057303;28;20024;-90
2021/08/25 12:36:52;;;;;;;3.72;2.30;;;33.30;65.80;;;;;;5056546;28;20032;-89
2021/08/25 12:39:27;;;;;;;3.50;2.10;;;33.60;65.80;;;;;;5056102;28;20025;-90
2021/08/25 12:41:55;;;;;;;2.85;2.10;;;33.90;64.60;;;;;;5056376;28;20422;-89
2021/08/25 12:44:22;;;;;;;4.43;2.35;;;34.00;64.40;;;;;;5039032;28;20025;-88
2021/08/25 12:46:56;;;;;;;3.95;2.10;;;33.80;63.70;;;;;;5055654;28;20021;-89
2021/08/25 12:49:31;;;;;;;2.75;1.90;;;33.70;64.30;;;;;;5054680;28;20028;-89
2021/08/25 12:51:59;;;;;;;3.17;1.67;;;33.90;64.50;;;;;;5056595;28;20057;-89
2021/08/25 12:54:26;;;;;;;2.65;1.95;;;34.10;63.40;;;;;;5039508;28;20031;-89
2021/08/25 12:56:55;;;;;;;3.63;2.05;;;33.60;63.30;;;;;;5057035;28;20105;-89
2021/08/25 12:59:24;;;;;;;3.05;2.08;;;32.50;64.60;;;;;;5056596;28;20028;-90